sensor_id;sensor_type;location;lat;lon;timestamp;P1;durP1;ratioP1;P2;durP2;ratioP2
11651;SDS011;5882;48.818;9.114;2023-07-02T00:01:19;1.63;;;1.52;;
11651;SDS011;5882;48.818;9.114;2023-07-02T00:04:04;1.73;;;1.63;;
11651;SDS011;5882;48.818;9.114;2023-07-02T00:06:49;1.60;;;1.50;;
11651;SDS011;5882;48.818;9.114;2023-07-02T00:09:34;1.80;;;1.50;;
11651;SDS011;5882;48.818;9.114;2023-07-02T00:12:20;1.73;;;1.63;;
11651;SDS011;5882;48.818;9.114;2023-07-02T00:15:06;1.70;;;1.60;;
11651;SDS011;5882;48.818;9.114;2023-07-02T00:17:51;1.60;;;1.50;;
11651;SDS011;5882;48.818;9.114;2023-07-02T00:20:36;1.42;;;1.33;;
11651;SDS011;5882;48.818;9.114;2023-07-02T00:23:21;1.52;;;1.42;;
11651;SDS011;5882;48.818;9.114;2023-07-02T00:26:06;2.92;;;1.60;;
11651;SDS011;5882;48.818;9.114;2023-07-02T00:28:52;1.92;;;1.73;;
11651;SDS011;5882;48.818;9.114;2023-07-02T00:31:37;1.65;;;1.55;;
11651;SDS011;5882;48.818;9.114;2023-07-02T00:34:22;1.60;;;1.50;;
11651;SDS011;5882;48.818;9.114;2023-07-02T00:37:08;2.22;;;2.05;;
11651;SDS011;5882;48.818;9.114;2023-07-02T00:39:53;1.73;;;1.63;;
11651;SDS011;5882;48.818;9.114;2023-07-02T00:42:39;2.03;;;1.48;;
11651;SDS011;5882;48.818;9.114;2023-07-02T00:45:25;1.70;;;1.60;;
11651;SDS011;5882;48.818;9.114;2023-07-02T00:48:11;1.80;;;1.42;;
11651;SDS011;5882;48.818;9.114;2023-07-02T00:50:56;1.80;;;1.70;;
11651;SDS011;5882;48.818;9.114;2023-07-02T00:53:41;1.52;;;1.42;;
11651;SDS011;5882;48.818;9.114;2023-07-02T00:56:26;1.60;;;1.50;;
11651;SDS011;5882;48.818;9.114;2023-07-02T00:59:11;1.63;;;1.52;;
11651;SDS011;5882;48.818;9.114;2023-07-02T01:01:58;1.83;;;1.73;;
11651;SDS011;5882;48.818;9.114;2023-07-02T01:04:43;1.65;;;1.55;;
11651;SDS011;5882;48.818;9.114;2023-07-02T01:07:33;1.40;;;1.30;;
11651;SDS011;5882;48.818;9.114;2023-07-02T01:10:18;1.50;;;1.40;;
11651;SDS011;5882;48.818;9.114;2023-07-02T01:13:04;1.80;;;1.70;;
11651;SDS011;5882;48.818;9.114;2023-07-02T01:15:52;1.73;;;1.60;;
11651;SDS011;5882;48.818;9.114;2023-07-02T01:18:38;1.50;;;1.40;;
11651;SDS011;5882;48.818;9.114;2023-07-02T01:21:25;1.50;;;1.40;;
11651;SDS011;5882;48.818;9.114;2023-07-02T01:24:10;1.95;;;1.73;;
11651;SDS011;5882;48.818;9.114;2023-07-02T01:26:56;2.67;;;1.48;;
11651;SDS011;5882;48.818;9.114;2023-07-02T01:29:44;1.92;;;1.38;;
11651;SDS011;5882;48.818;9.114;2023-07-02T01:32:30;1.55;;;1.45;;
11651;SDS011;5882;48.818;9.114;2023-07-02T01:35:15;2.35;;;1.40;;
11651;SDS011;5882;48.818;9.114;2023-07-02T01:38:02;2.55;;;1.60;;
11651;SDS011;5882;48.818;9.114;2023-07-02T01:40:47;1.50;;;1.40;;
11651;SDS011;5882;48.818;9.114;2023-07-02T01:43:32;1.48;;;1.38;;
11651;SDS011;5882;48.818;9.114;2023-07-02T01:46:17;1.60;;;1.50;;
11651;SDS011;5882;48.818;9.114;2023-07-02T01:49:02;1.58;;;1.48;;
11651;SDS011;5882;48.818;9.114;2023-07-02T01:51:48;1.63;;;1.40;;
11651;SDS011;5882;48.818;9.114;2023-07-02T01:54:35;1.60;;;1.50;;
11651;SDS011;5882;48.818;9.114;2023-07-02T01:57:20;1.33;;;1.23;;
11651;SDS011;5882;48.818;9.114;2023-07-02T02:00:06;1.50;;;1.40;;
11651;SDS011;5882;48.818;9.114;2023-07-02T02:02:52;1.75;;;1.65;;
11651;SDS011;5882;48.818;9.114;2023-07-02T02:05:37;1.70;;;1.60;;
11651;SDS011;5882;48.818;9.114;2023-07-02T02:08:22;1.60;;;1.50;;
11651;SDS011;5882;48.818;9.114;2023-07-02T02:11:08;1.65;;;1.40;;
11651;SDS011;5882;48.818;9.114;2023-07-02T02:13:53;1.60;;;1.40;;
11651;SDS011;5882;48.818;9.114;2023-07-02T02:16:39;1.50;;;1.40;;
11651;SDS011;5882;48.818;9.114;2023-07-02T02:19:23;1.60;;;1.40;;
11651;SDS011;5882;48.818;9.114;2023-07-02T02:22:08;1.85;;;1.70;;
11651;SDS011;5882;48.818;9.114;2023-07-02T02:24:53;1.50;;;1.40;;
11651;SDS011;5882;48.818;9.114;2023-07-02T02:27:40;1.67;;;1.50;;
11651;SDS011;5882;48.818;9.114;2023-07-02T02:30:27;1.70;;;1.60;;
11651;SDS011;5882;48.818;9.114;2023-07-02T02:33:11;1.73;;;1.63;;
11651;SDS011;5882;48.818;9.114;2023-07-02T02:35:56;1.67;;;1.58;;
11651;SDS011;5882;48.818;9.114;2023-07-02T02:38:41;1.50;;;1.40;;
11651;SDS011;5882;48.818;9.114;2023-07-02T02:41:29;2.08;;;1.45;;
11651;SDS011;5882;48.818;9.114;2023-07-02T02:44:15;1.88;;;1.67;;
11651;SDS011;5882;48.818;9.114;2023-07-02T02:47:00;1.70;;;1.60;;
11651;SDS011;5882;48.818;9.114;2023-07-02T02:49:46;1.60;;;1.50;;
11651;SDS011;5882;48.818;9.114;2023-07-02T02:52:31;1.70;;;1.60;;
11651;SDS011;5882;48.818;9.114;2023-07-02T02:55:16;1.75;;;1.65;;
11651;SDS011;5882;48.818;9.114;2023-07-02T02:58:01;1.70;;;1.60;;
11651;SDS011;5882;48.818;9.114;2023-07-02T03:00:47;1.70;;;1.60;;
11651;SDS011;5882;48.818;9.114;2023-07-02T03:03:33;1.55;;;1.45;;
11651;SDS011;5882;48.818;9.114;2023-07-02T03:06:22;1.50;;;1.40;;
11651;SDS011;5882;48.818;9.114;2023-07-02T03:09:09;1.45;;;1.35;;
11651;SDS011;5882;48.818;9.114;2023-07-02T03:11:54;1.52;;;1.42;;
11651;SDS011;5882;48.818;9.114;2023-07-02T03:14:39;1.67;;;1.58;;
11651;SDS011;5882;48.818;9.114;2023-07-02T03:17:25;1.35;;;1.30;;
11651;SDS011;5882;48.818;9.114;2023-07-02T03:20:11;1.40;;;1.30;;
11651;SDS011;5882;48.818;9.114;2023-07-02T03:22:56;1.42;;;1.33;;
11651;SDS011;5882;48.818;9.114;2023-07-02T03:25:41;1.88;;;1.77;;
11651;SDS011;5882;48.818;9.114;2023-07-02T03:28:26;1.55;;;1.45;;
11651;SDS011;5882;48.818;9.114;2023-07-02T03:31:11;1.80;;;1.70;;
11651;SDS011;5882;48.818;9.114;2023-07-02T03:33:58;2.00;;;1.90;;
11651;SDS011;5882;48.818;9.114;2023-07-02T03:36:43;2.13;;;1.92;;
11651;SDS011;5882;48.818;9.114;2023-07-02T03:39:28;1.83;;;1.73;;
11651;SDS011;5882;48.818;9.114;2023-07-02T03:42:13;1.75;;;1.65;;
11651;SDS011;5882;48.818;9.114;2023-07-02T03:44:58;1.67;;;1.58;;
11651;SDS011;5882;48.818;9.114;2023-07-02T03:47:43;1.63;;;1.52;;
11651;SDS011;5882;48.818;9.114;2023-07-02T03:50:29;2.05;;;1.70;;
11651;SDS011;5882;48.818;9.114;2023-07-02T03:53:14;2.10;;;1.90;;
11651;SDS011;5882;48.818;9.114;2023-07-02T03:55:59;1.90;;;1.52;;
11651;SDS011;5882;48.818;9.114;2023-07-02T03:58:44;1.80;;;1.70;;
11651;SDS011;5882;48.818;9.114;2023-07-02T04:01:29;2.40;;;1.80;;
11651;SDS011;5882;48.818;9.114;2023-07-02T04:04:14;4.65;;;1.75;;
11651;SDS011;5882;48.818;9.114;2023-07-02T04:07:01;2.00;;;1.90;;
11651;SDS011;5882;48.818;9.114;2023-07-02T04:09:45;1.65;;;1.55;;
11651;SDS011;5882;48.818;9.114;2023-07-02T04:12:31;1.60;;;1.50;;
11651;SDS011;5882;48.818;9.114;2023-07-02T04:15:16;1.83;;;1.73;;
11651;SDS011;5882;48.818;9.114;2023-07-02T04:18:01;1.83;;;1.73;;
11651;SDS011;5882;48.818;9.114;2023-07-02T04:20:46;2.22;;;1.95;;
11651;SDS011;5882;48.818;9.114;2023-07-02T04:23:32;2.40;;;2.20;;
11651;SDS011;5882;48.818;9.114;2023-07-02T04:26:17;2.20;;;1.73;;
11651;SDS011;5882;48.818;9.114;2023-07-02T04:29:02;1.95;;;1.73;;
11651;SDS011;5882;48.818;9.114;2023-07-02T04:31:47;3.88;;;2.40;;
11651;SDS011;5882;48.818;9.114;2023-07-02T04:34:32;2.60;;;2.00;;
11651;SDS011;5882;48.818;9.114;2023-07-02T04:37:18;1.55;;;1.45;;
11651;SDS011;5882;48.818;9.114;2023-07-02T04:40:07;2.45;;;2.00;;
11651;SDS011;5882;48.818;9.114;2023-07-02T04:42:53;2.42;;;1.95;;
11651;SDS011;5882;48.818;9.114;2023-07-02T04:45:41;2.30;;;2.10;;
11651;SDS011;5882;48.818;9.114;2023-07-02T04:48:28;3.58;;;2.10;;
11651;SDS011;5882;48.818;9.114;2023-07-02T04:51:13;2.17;;;1.98;;
11651;SDS011;5882;48.818;9.114;2023-07-02T04:53:59;2.42;;;2.00;;
11651;SDS011;5882;48.818;9.114;2023-07-02T04:56:45;2.00;;;1.70;;
11651;SDS011;5882;48.818;9.114;2023-07-02T04:59:30;2.55;;;2.03;;
11651;SDS011;5882;48.818;9.114;2023-07-02T05:02:15;1.55;;;1.45;;
11651;SDS011;5882;48.818;9.114;2023-07-02T05:05:00;2.05;;;1.85;;
11651;SDS011;5882;48.818;9.114;2023-07-02T05:07:45;1.73;;;1.55;;
11651;SDS011;5882;48.818;9.114;2023-07-02T05:10:30;1.90;;;1.80;;
11651;SDS011;5882;48.818;9.114;2023-07-02T05:13:16;1.92;;;1.67;;
11651;SDS011;5882;48.818;9.114;2023-07-02T05:16:01;1.92;;;1.63;;
11651;SDS011;5882;48.818;9.114;2023-07-02T05:18:47;1.90;;;1.80;;
11651;SDS011;5882;48.818;9.114;2023-07-02T05:21:32;3.30;;;1.80;;
11651;SDS011;5882;48.818;9.114;2023-07-02T05:24:17;2.28;;;1.83;;
11651;SDS011;5882;48.818;9.114;2023-07-02T05:27:02;2.17;;;1.70;;
11651;SDS011;5882;48.818;9.114;2023-07-02T05:29:49;2.67;;;1.90;;
11651;SDS011;5882;48.818;9.114;2023-07-02T05:32:34;1.80;;;1.65;;
11651;SDS011;5882;48.818;9.114;2023-07-02T05:35:19;1.80;;;1.70;;
11651;SDS011;5882;48.818;9.114;2023-07-02T05:38:04;2.10;;;1.90;;
11651;SDS011;5882;48.818;9.114;2023-07-02T05:40:49;2.08;;;1.90;;
11651;SDS011;5882;48.818;9.114;2023-07-02T05:43:34;2.00;;;1.80;;
11651;SDS011;5882;48.818;9.114;2023-07-02T05:46:21;3.05;;;2.22;;
11651;SDS011;5882;48.818;9.114;2023-07-02T05:49:06;2.67;;;1.98;;
11651;SDS011;5882;48.818;9.114;2023-07-02T05:51:51;1.85;;;1.60;;
11651;SDS011;5882;48.818;9.114;2023-07-02T05:54:38;2.28;;;2.05;;
11651;SDS011;5882;48.818;9.114;2023-07-02T05:57:26;2.63;;;2.08;;
11651;SDS011;5882;48.818;9.114;2023-07-02T06:00:15;4.22;;;2.58;;
11651;SDS011;5882;48.818;9.114;2023-07-02T06:03:10;2.22;;;2.03;;
11651;SDS011;5882;48.818;9.114;2023-07-02T06:05:59;2.00;;;1.90;;
11651;SDS011;5882;48.818;9.114;2023-07-02T06:08:44;2.22;;;1.98;;
11651;SDS011;5882;48.818;9.114;2023-07-02T06:11:30;3.10;;;2.80;;
11651;SDS011;5882;48.818;9.114;2023-07-02T06:14:21;2.97;;;2.35;;
11651;SDS011;5882;48.818;9.114;2023-07-02T06:17:20;3.00;;;2.40;;
11651;SDS011;5882;48.818;9.114;2023-07-02T06:20:08;2.72;;;2.33;;
11651;SDS011;5882;48.818;9.114;2023-07-02T06:22:56;3.90;;;2.58;;
11651;SDS011;5882;48.818;9.114;2023-07-02T06:25:41;5.35;;;3.33;;
11651;SDS011;5882;48.818;9.114;2023-07-02T06:28:26;3.60;;;3.17;;
11651;SDS011;5882;48.818;9.114;2023-07-02T06:31:11;6.60;;;3.42;;
11651;SDS011;5882;48.818;9.114;2023-07-02T06:33:57;4.18;;;2.83;;
11651;SDS011;5882;48.818;9.114;2023-07-02T06:36:43;3.55;;;2.75;;
11651;SDS011;5882;48.818;9.114;2023-07-02T06:39:29;3.80;;;2.90;;
11651;SDS011;5882;48.818;9.114;2023-07-02T06:42:14;3.22;;;2.85;;
11651;SDS011;5882;48.818;9.114;2023-07-02T06:44:59;4.18;;;2.90;;
11651;SDS011;5882;48.818;9.114;2023-07-02T06:47:44;4.07;;;2.70;;
11651;SDS011;5882;48.818;9.114;2023-07-02T06:50:29;3.10;;;2.80;;
11651;SDS011;5882;48.818;9.114;2023-07-02T06:53:15;3.83;;;2.72;;
11651;SDS011;5882;48.818;9.114;2023-07-02T06:56:00;4.60;;;3.40;;
11651;SDS011;5882;48.818;9.114;2023-07-02T06:58:45;3.80;;;2.92;;
11651;SDS011;5882;48.818;9.114;2023-07-02T07:01:30;3.75;;;3.35;;
11651;SDS011;5882;48.818;9.114;2023-07-02T07:04:15;3.60;;;3.15;;
11651;SDS011;5882;48.818;9.114;2023-07-02T07:07:00;4.40;;;3.20;;
11651;SDS011;5882;48.818;9.114;2023-07-02T07:09:48;5.45;;;3.50;;
11651;SDS011;5882;48.818;9.114;2023-07-02T07:12:51;4.10;;;3.40;;
11651;SDS011;5882;48.818;9.114;2023-07-02T07:15:37;4.20;;;3.60;;
11651;SDS011;5882;48.818;9.114;2023-07-02T07:18:22;5.40;;;4.10;;
11651;SDS011;5882;48.818;9.114;2023-07-02T07:21:07;7.80;;;3.92;;
11651;SDS011;5882;48.818;9.114;2023-07-02T07:23:52;4.30;;;3.90;;
11651;SDS011;5882;48.818;9.114;2023-07-02T07:26:39;7.80;;;4.25;;
11651;SDS011;5882;48.818;9.114;2023-07-02T07:29:24;5.65;;;4.40;;
11651;SDS011;5882;48.818;9.114;2023-07-02T07:32:09;5.45;;;4.10;;
11651;SDS011;5882;48.818;9.114;2023-07-02T07:34:54;4.85;;;4.00;;
11651;SDS011;5882;48.818;9.114;2023-07-02T07:37:39;6.03;;;4.10;;
11651;SDS011;5882;48.818;9.114;2023-07-02T07:40:26;8.45;;;4.38;;
11651;SDS011;5882;48.818;9.114;2023-07-02T07:43:13;6.18;;;4.53;;
11651;SDS011;5882;48.818;9.114;2023-07-02T07:46:01;5.97;;;4.50;;
11651;SDS011;5882;48.818;9.114;2023-07-02T07:48:46;6.88;;;4.50;;
11651;SDS011;5882;48.818;9.114;2023-07-02T07:51:31;7.18;;;4.97;;
11651;SDS011;5882;48.818;9.114;2023-07-02T07:54:16;6.43;;;5.28;;
11651;SDS011;5882;48.818;9.114;2023-07-02T07:57:02;5.97;;;4.75;;
11651;SDS011;5882;48.818;9.114;2023-07-02T07:59:49;8.10;;;5.38;;
11651;SDS011;5882;48.818;9.114;2023-07-02T08:02:35;6.13;;;4.50;;
11651;SDS011;5882;48.818;9.114;2023-07-02T08:05:20;6.20;;;5.00;;
11651;SDS011;5882;48.818;9.114;2023-07-02T08:08:06;8.80;;;5.15;;
11651;SDS011;5882;48.818;9.114;2023-07-02T08:10:52;8.50;;;5.18;;
11651;SDS011;5882;48.818;9.114;2023-07-02T08:13:37;5.93;;;4.80;;
11651;SDS011;5882;48.818;9.114;2023-07-02T08:16:24;7.53;;;4.85;;
11651;SDS011;5882;48.818;9.114;2023-07-02T08:19:09;5.97;;;4.82;;
11651;SDS011;5882;48.818;9.114;2023-07-02T08:21:54;7.15;;;4.30;;
11651;SDS011;5882;48.818;9.114;2023-07-02T08:24:40;8.30;;;5.63;;
11651;SDS011;5882;48.818;9.114;2023-07-02T08:27:25;6.47;;;4.32;;
11651;SDS011;5882;48.818;9.114;2023-07-02T08:30:10;5.63;;;4.30;;
11651;SDS011;5882;48.818;9.114;2023-07-02T08:32:57;6.63;;;4.68;;
11651;SDS011;5882;48.818;9.114;2023-07-02T08:35:42;6.90;;;4.97;;
11651;SDS011;5882;48.818;9.114;2023-07-02T08:38:27;5.07;;;4.28;;
11651;SDS011;5882;48.818;9.114;2023-07-02T08:41:13;5.90;;;4.43;;
11651;SDS011;5882;48.818;9.114;2023-07-02T08:43:58;5.72;;;4.60;;
11651;SDS011;5882;48.818;9.114;2023-07-02T08:46:48;5.93;;;4.18;;
11651;SDS011;5882;48.818;9.114;2023-07-02T08:49:39;6.28;;;4.57;;
11651;SDS011;5882;48.818;9.114;2023-07-02T08:52:25;6.10;;;4.30;;
11651;SDS011;5882;48.818;9.114;2023-07-02T08:55:10;5.68;;;4.18;;
11651;SDS011;5882;48.818;9.114;2023-07-02T08:57:55;5.95;;;3.95;;
11651;SDS011;5882;48.818;9.114;2023-07-02T09:03:58;7.72;;;4.75;;
11651;SDS011;5882;48.818;9.114;2023-07-02T09:07:07;5.30;;;4.47;;
11651;SDS011;5882;48.818;9.114;2023-07-02T09:09:58;6.97;;;4.22;;
11651;SDS011;5882;48.818;9.114;2023-07-02T09:12:43;8.32;;;5.20;;
11651;SDS011;5882;48.818;9.114;2023-07-02T09:15:39;6.00;;;4.85;;
11651;SDS011;5882;48.818;9.114;2023-07-02T09:18:24;7.60;;;4.93;;
11651;SDS011;5882;48.818;9.114;2023-07-02T09:21:10;8.30;;;5.20;;
11651;SDS011;5882;48.818;9.114;2023-07-02T09:23:56;6.18;;;4.78;;
11651;SDS011;5882;48.818;9.114;2023-07-02T09:26:43;7.03;;;4.35;;
11651;SDS011;5882;48.818;9.114;2023-07-02T09:29:29;6.03;;;4.72;;
11651;SDS011;5882;48.818;9.114;2023-07-02T09:32:25;7.45;;;4.78;;
11651;SDS011;5882;48.818;9.114;2023-07-02T09:35:10;9.07;;;4.43;;
11651;SDS011;5882;48.818;9.114;2023-07-02T09:37:56;8.02;;;4.90;;
11651;SDS011;5882;48.818;9.114;2023-07-02T09:40:45;7.60;;;4.75;;
11651;SDS011;5882;48.818;9.114;2023-07-02T09:43:30;7.28;;;5.15;;
11651;SDS011;5882;48.818;9.114;2023-07-02T09:46:16;5.65;;;4.35;;
11651;SDS011;5882;48.818;9.114;2023-07-02T09:49:01;6.38;;;5.00;;
11651;SDS011;5882;48.818;9.114;2023-07-02T09:51:48;7.22;;;4.72;;
11651;SDS011;5882;48.818;9.114;2023-07-02T09:54:33;6.03;;;4.65;;
11651;SDS011;5882;48.818;9.114;2023-07-02T09:57:21;5.72;;;4.53;;
11651;SDS011;5882;48.818;9.114;2023-07-02T10:00:07;5.70;;;4.53;;
11651;SDS011;5882;48.818;9.114;2023-07-02T10:02:53;6.43;;;4.70;;
11651;SDS011;5882;48.818;9.114;2023-07-02T10:05:38;7.15;;;4.88;;
11651;SDS011;5882;48.818;9.114;2023-07-02T10:08:24;6.70;;;4.93;;
11651;SDS011;5882;48.818;9.114;2023-07-02T10:11:13;7.45;;;4.72;;
11651;SDS011;5882;48.818;9.114;2023-07-02T10:17:22;5.05;;;4.05;;
11651;SDS011;5882;48.818;9.114;2023-07-02T10:20:07;5.55;;;4.50;;
11651;SDS011;5882;48.818;9.114;2023-07-02T10:22:54;4.90;;;4.18;;
11651;SDS011;5882;48.818;9.114;2023-07-02T10:25:40;5.65;;;4.40;;
11651;SDS011;5882;48.818;9.114;2023-07-02T10:28:25;6.57;;;4.88;;
11651;SDS011;5882;48.818;9.114;2023-07-02T10:31:18;6.90;;;4.70;;
11651;SDS011;5882;48.818;9.114;2023-07-02T10:34:05;8.43;;;4.63;;
11651;SDS011;5882;48.818;9.114;2023-07-02T10:36:53;5.93;;;4.75;;
11651;SDS011;5882;48.818;9.114;2023-07-02T10:39:38;5.63;;;4.72;;
11651;SDS011;5882;48.818;9.114;2023-07-02T10:42:26;6.07;;;4.38;;
11651;SDS011;5882;48.818;9.114;2023-07-02T10:45:11;6.15;;;4.60;;
11651;SDS011;5882;48.818;9.114;2023-07-02T10:47:57;6.68;;;5.13;;
11651;SDS011;5882;48.818;9.114;2023-07-02T10:50:43;5.97;;;4.80;;
11651;SDS011;5882;48.818;9.114;2023-07-02T10:53:28;5.93;;;4.70;;
11651;SDS011;5882;48.818;9.114;2023-07-02T10:56:15;8.05;;;5.43;;
11651;SDS011;5882;48.818;9.114;2023-07-02T10:59:00;5.95;;;5.10;;
11651;SDS011;5882;48.818;9.114;2023-07-02T11:01:50;5.75;;;4.63;;
11651;SDS011;5882;48.818;9.114;2023-07-02T11:04:39;6.07;;;5.20;;
11651;SDS011;5882;48.818;9.114;2023-07-02T11:07:26;5.70;;;4.47;;
11651;SDS011;5882;48.818;9.114;2023-07-02T11:10:17;6.10;;;4.75;;
11651;SDS011;5882;48.818;9.114;2023-07-02T11:13:09;7.80;;;4.90;;
11651;SDS011;5882;48.818;9.114;2023-07-02T11:15:55;5.78;;;4.80;;
11651;SDS011;5882;48.818;9.114;2023-07-02T11:18:40;6.07;;;4.95;;
11651;SDS011;5882;48.818;9.114;2023-07-02T11:21:25;6.43;;;4.70;;
11651;SDS011;5882;48.818;9.114;2023-07-02T11:24:12;6.13;;;4.85;;
11651;SDS011;5882;48.818;9.114;2023-07-02T11:26:57;6.05;;;4.85;;
11651;SDS011;5882;48.818;9.114;2023-07-02T11:29:43;6.32;;;4.75;;
11651;SDS011;5882;48.818;9.114;2023-07-02T11:32:50;5.38;;;4.88;;
11651;SDS011;5882;48.818;9.114;2023-07-02T11:35:36;6.10;;;4.75;;
11651;SDS011;5882;48.818;9.114;2023-07-02T11:38:22;7.32;;;4.85;;
11651;SDS011;5882;48.818;9.114;2023-07-02T11:41:08;5.43;;;4.50;;
11651;SDS011;5882;48.818;9.114;2023-07-02T11:43:54;7.55;;;5.00;;
11651;SDS011;5882;48.818;9.114;2023-07-02T11:46:39;7.43;;;5.55;;
11651;SDS011;5882;48.818;9.114;2023-07-02T11:49:25;7.60;;;5.18;;
11651;SDS011;5882;48.818;9.114;2023-07-02T11:52:10;5.72;;;4.85;;
11651;SDS011;5882;48.818;9.114;2023-07-02T11:54:56;5.45;;;4.80;;
11651;SDS011;5882;48.818;9.114;2023-07-02T11:57:43;6.97;;;4.53;;
11651;SDS011;5882;48.818;9.114;2023-07-02T12:00:30;6.30;;;4.78;;
11651;SDS011;5882;48.818;9.114;2023-07-02T12:03:16;6.65;;;5.20;;
11651;SDS011;5882;48.818;9.114;2023-07-02T12:06:02;7.40;;;5.35;;
11651;SDS011;5882;48.818;9.114;2023-07-02T12:08:47;7.43;;;5.63;;
11651;SDS011;5882;48.818;9.114;2023-07-02T12:11:32;7.53;;;5.57;;
11651;SDS011;5882;48.818;9.114;2023-07-02T12:14:19;7.38;;;5.07;;
11651;SDS011;5882;48.818;9.114;2023-07-02T12:17:04;8.85;;;5.20;;
11651;SDS011;5882;48.818;9.114;2023-07-02T12:19:58;6.25;;;4.47;;
11651;SDS011;5882;48.818;9.114;2023-07-02T12:22:51;6.38;;;4.75;;
11651;SDS011;5882;48.818;9.114;2023-07-02T12:25:37;7.50;;;5.30;;
11651;SDS011;5882;48.818;9.114;2023-07-02T12:28:34;6.38;;;5.05;;
11651;SDS011;5882;48.818;9.114;2023-07-02T12:31:21;8.15;;;5.60;;
11651;SDS011;5882;48.818;9.114;2023-07-02T12:34:07;7.20;;;5.28;;
11651;SDS011;5882;48.818;9.114;2023-07-02T12:36:52;7.75;;;4.90;;
11651;SDS011;5882;48.818;9.114;2023-07-02T12:39:40;6.97;;;5.47;;
11651;SDS011;5882;48.818;9.114;2023-07-02T12:42:28;7.53;;;5.95;;
11651;SDS011;5882;48.818;9.114;2023-07-02T12:45:17;6.30;;;5.10;;
11651;SDS011;5882;48.818;9.114;2023-07-02T12:48:04;6.28;;;5.35;;
11651;SDS011;5882;48.818;9.114;2023-07-02T12:50:53;5.97;;;4.78;;
11651;SDS011;5882;48.818;9.114;2023-07-02T12:53:38;6.75;;;5.43;;
11651;SDS011;5882;48.818;9.114;2023-07-02T12:56:25;6.72;;;5.28;;
11651;SDS011;5882;48.818;9.114;2023-07-02T12:59:10;6.38;;;5.03;;
11651;SDS011;5882;48.818;9.114;2023-07-02T13:01:59;6.88;;;5.18;;
11651;SDS011;5882;48.818;9.114;2023-07-02T13:04:50;6.35;;;5.35;;
11651;SDS011;5882;48.818;9.114;2023-07-02T13:07:36;6.90;;;5.00;;
11651;SDS011;5882;48.818;9.114;2023-07-02T13:10:21;6.18;;;4.90;;
11651;SDS011;5882;48.818;9.114;2023-07-02T13:13:07;7.00;;;5.00;;
11651;SDS011;5882;48.818;9.114;2023-07-02T13:15:52;6.28;;;5.07;;
11651;SDS011;5882;48.818;9.114;2023-07-02T13:18:38;6.15;;;5.05;;
11651;SDS011;5882;48.818;9.114;2023-07-02T13:21:28;6.78;;;5.22;;
11651;SDS011;5882;48.818;9.114;2023-07-02T13:24:33;6.40;;;4.93;;
11651;SDS011;5882;48.818;9.114;2023-07-02T13:27:33;7.05;;;5.15;;
11651;SDS011;5882;48.818;9.114;2023-07-02T13:30:19;6.97;;;5.18;;
11651;SDS011;5882;48.818;9.114;2023-07-02T13:33:07;7.60;;;5.10;;
11651;SDS011;5882;48.818;9.114;2023-07-02T13:35:54;7.05;;;5.47;;
11651;SDS011;5882;48.818;9.114;2023-07-02T13:46:30;6.88;;;5.30;;
11651;SDS011;5882;48.818;9.114;2023-07-02T13:49:15;7.10;;;5.20;;
11651;SDS011;5882;48.818;9.114;2023-07-02T13:52:00;5.88;;;4.97;;
11651;SDS011;5882;48.818;9.114;2023-07-02T13:54:45;7.32;;;4.97;;
11651;SDS011;5882;48.818;9.114;2023-07-02T13:57:30;7.10;;;5.82;;
11651;SDS011;5882;48.818;9.114;2023-07-02T14:00:17;8.07;;;5.10;;
11651;SDS011;5882;48.818;9.114;2023-07-02T14:03:02;7.22;;;5.40;;
11651;SDS011;5882;48.818;9.114;2023-07-02T14:05:47;5.97;;;5.03;;
11651;SDS011;5882;48.818;9.114;2023-07-02T14:08:33;6.20;;;5.60;;
11651;SDS011;5882;48.818;9.114;2023-07-02T14:11:20;5.68;;;4.85;;
11651;SDS011;5882;48.818;9.114;2023-07-02T14:14:07;5.70;;;5.13;;
11651;SDS011;5882;48.818;9.114;2023-07-02T14:16:53;6.40;;;5.25;;
11651;SDS011;5882;48.818;9.114;2023-07-02T14:19:38;8.10;;;4.70;;
11651;SDS011;5882;48.818;9.114;2023-07-02T14:22:24;6.93;;;5.28;;
11651;SDS011;5882;48.818;9.114;2023-07-02T14:25:09;7.47;;;5.32;;
11651;SDS011;5882;48.818;9.114;2023-07-02T14:27:54;6.65;;;5.10;;
11651;SDS011;5882;48.818;9.114;2023-07-02T14:30:39;6.88;;;5.05;;
11651;SDS011;5882;48.818;9.114;2023-07-02T14:33:28;5.85;;;5.25;;
11651;SDS011;5882;48.818;9.114;2023-07-02T14:36:14;7.32;;;5.13;;
11651;SDS011;5882;48.818;9.114;2023-07-02T14:39:00;6.40;;;5.25;;
11651;SDS011;5882;48.818;9.114;2023-07-02T14:41:45;7.60;;;4.82;;
11651;SDS011;5882;48.818;9.114;2023-07-02T14:44:32;5.63;;;4.82;;
11651;SDS011;5882;48.818;9.114;2023-07-02T14:47:18;6.90;;;4.75;;
11651;SDS011;5882;48.818;9.114;2023-07-02T14:50:05;6.18;;;5.55;;
11651;SDS011;5882;48.818;9.114;2023-07-02T14:52:50;6.70;;;4.97;;
11651;SDS011;5882;48.818;9.114;2023-07-02T14:55:36;7.43;;;5.95;;
11651;SDS011;5882;48.818;9.114;2023-07-02T14:58:22;6.30;;;5.35;;
11651;SDS011;5882;48.818;9.114;2023-07-02T15:01:08;6.40;;;4.68;;
11651;SDS011;5882;48.818;9.114;2023-07-02T15:03:53;5.55;;;5.00;;
11651;SDS011;5882;48.818;9.114;2023-07-02T15:06:42;6.50;;;5.22;;
11651;SDS011;5882;48.818;9.114;2023-07-02T15:09:30;5.53;;;4.63;;
11651;SDS011;5882;48.818;9.114;2023-07-02T15:12:15;6.38;;;5.40;;
11651;SDS011;5882;48.818;9.114;2023-07-02T15:15:00;5.32;;;4.82;;
11651;SDS011;5882;48.818;9.114;2023-07-02T15:17:45;8.02;;;6.20;;
11651;SDS011;5882;48.818;9.114;2023-07-02T15:20:30;6.22;;;4.70;;
11651;SDS011;5882;48.818;9.114;2023-07-02T15:23:16;6.78;;;5.07;;
11651;SDS011;5882;48.818;9.114;2023-07-02T15:26:02;7.75;;;5.78;;
11651;SDS011;5882;48.818;9.114;2023-07-02T15:28:47;6.25;;;4.88;;
11651;SDS011;5882;48.818;9.114;2023-07-02T15:31:32;6.97;;;5.25;;
11651;SDS011;5882;48.818;9.114;2023-07-02T15:34:19;7.60;;;5.57;;
11651;SDS011;5882;48.818;9.114;2023-07-02T15:37:04;6.13;;;4.78;;
11651;SDS011;5882;48.818;9.114;2023-07-02T15:39:51;6.35;;;5.03;;
11651;SDS011;5882;48.818;9.114;2023-07-02T15:42:36;7.35;;;5.30;;
11651;SDS011;5882;48.818;9.114;2023-07-02T15:45:21;7.55;;;5.65;;
11651;SDS011;5882;48.818;9.114;2023-07-02T15:48:06;6.88;;;5.65;;
11651;SDS011;5882;48.818;9.114;2023-07-02T15:50:51;6.75;;;5.40;;
11651;SDS011;5882;48.818;9.114;2023-07-02T15:53:37;6.43;;;5.35;;
11651;SDS011;5882;48.818;9.114;2023-07-02T15:56:24;6.13;;;5.22;;
11651;SDS011;5882;48.818;9.114;2023-07-02T15:59:10;6.65;;;5.38;;
11651;SDS011;5882;48.818;9.114;2023-07-02T16:01:55;5.85;;;5.03;;
11651;SDS011;5882;48.818;9.114;2023-07-02T16:04:40;8.18;;;5.05;;
11651;SDS011;5882;48.818;9.114;2023-07-02T16:07:28;8.93;;;5.93;;
11651;SDS011;5882;48.818;9.114;2023-07-02T16:10:13;6.07;;;5.47;;
11651;SDS011;5882;48.818;9.114;2023-07-02T16:12:59;5.85;;;5.25;;
11651;SDS011;5882;48.818;9.114;2023-07-02T16:15:44;8.13;;;5.45;;
11651;SDS011;5882;48.818;9.114;2023-07-02T16:18:29;6.57;;;5.80;;
11651;SDS011;5882;48.818;9.114;2023-07-02T16:21:15;6.20;;;5.28;;
11651;SDS011;5882;48.818;9.114;2023-07-02T16:24:00;7.68;;;5.90;;
11651;SDS011;5882;48.818;9.114;2023-07-02T16:26:45;5.93;;;4.75;;
11651;SDS011;5882;48.818;9.114;2023-07-02T16:29:33;5.32;;;4.82;;
11651;SDS011;5882;48.818;9.114;2023-07-02T16:32:18;5.90;;;4.90;;
11651;SDS011;5882;48.818;9.114;2023-07-02T16:35:08;7.30;;;5.50;;
11651;SDS011;5882;48.818;9.114;2023-07-02T16:37:53;5.78;;;5.00;;
11651;SDS011;5882;48.818;9.114;2023-07-02T16:40:38;7.05;;;5.07;;
11651;SDS011;5882;48.818;9.114;2023-07-02T16:43:23;5.78;;;5.18;;
11651;SDS011;5882;48.818;9.114;2023-07-02T16:46:10;6.03;;;4.85;;
11651;SDS011;5882;48.818;9.114;2023-07-02T16:48:56;5.72;;;4.65;;
11651;SDS011;5882;48.818;9.114;2023-07-02T16:51:42;6.72;;;5.68;;
11651;SDS011;5882;48.818;9.114;2023-07-02T16:54:28;5.85;;;5.25;;
11651;SDS011;5882;48.818;9.114;2023-07-02T16:57:13;6.10;;;4.57;;
11651;SDS011;5882;48.818;9.114;2023-07-02T16:59:58;5.95;;;4.72;;
11651;SDS011;5882;48.818;9.114;2023-07-02T17:02:46;5.57;;;4.72;;
11651;SDS011;5882;48.818;9.114;2023-07-02T17:05:31;7.10;;;5.45;;
11651;SDS011;5882;48.818;9.114;2023-07-02T17:08:16;7.13;;;5.05;;
11651;SDS011;5882;48.818;9.114;2023-07-02T17:11:01;6.60;;;5.15;;